createdAt,value
2023-11-08T00:00:00.782Z,191.6
2023-11-08T00:05:00.712Z,195.6
2023-11-08T00:10:00.814Z,187.2
2023-11-08T00:15:02.620Z,178.4
2023-11-08T00:20:00.742Z,173.6
2023-11-08T00:25:00.740Z,186.6
2023-11-08T00:30:00.768Z,178.5
2023-11-08T00:35:00.928Z,182.3
2023-11-08T00:40:00.882Z,187.8
2023-11-08T00:45:00.761Z,170.7
2023-11-08T00:50:00.788Z,193.4
2023-11-08T00:55:00.713Z,180.1
2023-11-08T01:00:00.707Z,192.7
2023-11-08T01:05:00.998Z,200.8
2023-11-08T01:10:00.776Z,188.7
2023-11-08T01:15:00.736Z,183.7
2023-11-08T01:20:00.782Z,179.5
2023-11-08T01:25:00.755Z,197.2
2023-11-08T01:30:00.759Z,186.1
2023-11-08T01:35:00.768Z,195.9
2023-11-08T01:40:00.768Z,189.2
2023-11-08T01:45:00.741Z,186.1
2023-11-08T01:50:00.892Z,183.8
2023-11-08T01:55:00.728Z,184.2
2023-11-08T02:00:00.835Z,178.3
2023-11-08T02:05:00.867Z,181.4
2023-11-08T02:10:00.749Z,188.4
2023-11-08T02:15:00.854Z,190.2
2023-11-08T02:20:00.760Z,187.2
2023-11-08T02:25:00.837Z,197.9
2023-11-08T02:30:00.710Z,184.2
2023-11-08T02:35:00.705Z,175.5
2023-11-08T02:40:00.766Z,183.8
2023-11-08T02:45:00.775Z,177.1
2023-11-08T02:50:00.971Z,175.4
2023-11-08T02:55:00.710Z,190.9
2023-11-08T03:00:00.766Z,182.7
2023-11-08T03:05:01.153Z,182.6
2023-11-08T03:10:00.756Z,188.3
2023-11-08T03:15:00.742Z,196.1
2023-11-08T03:20:00.854Z,177.4
2023-11-08T03:25:00.741Z,186.5
2023-11-08T03:30:00.761Z,180.1
2023-11-08T03:35:00.758Z,182.4
2023-11-08T03:40:00.788Z,184.3
2023-11-08T03:45:00.857Z,190.1
2023-11-08T03:50:00.746Z,186.6
2023-11-08T03:55:01.108Z,183.0
2023-11-08T04:00:00.728Z,174.8
2023-11-08T04:05:00.772Z,183.0
2023-11-08T04:10:00.890Z,180.2
2023-11-08T04:15:00.776Z,192.3
2023-11-08T04:20:00.814Z,187.8
2023-11-08T04:25:00.747Z,189.6
2023-11-08T04:30:00.768Z,180.8
2023-11-08T04:35:00.735Z,190.2
2023-11-08T04:40:00.855Z,195.1
2023-11-08T04:45:00.829Z,193.0
2023-11-08T04:50:00.761Z,196.2
2023-11-08T04:55:00.896Z,189.1
2023-11-08T05:00:00.738Z,196.0
2023-11-08T05:05:00.709Z,189.2
2023-11-08T05:10:01.308Z,196.8
2023-11-08T05:15:00.827Z,185.5
2023-11-08T05:20:00.756Z,197.3
2023-11-08T05:25:00.704Z,193.2
2023-11-08T05:30:00.759Z,191.7
2023-11-08T05:35:00.824Z,192.4
2023-11-08T05:40:01.022Z,197.1
2023-11-08T05:45:00.731Z,192.7
2023-11-08T05:50:00.776Z,197.8
2023-11-08T05:55:00.807Z,183.5
2023-11-08T06:00:00.762Z,192.0
2023-11-08T06:05:00.775Z,189.6
2023-11-08T06:10:00.817Z,191.6
2023-11-08T06:15:00.728Z,187.5
2023-11-08T06:20:01.332Z,202.4
2023-11-08T06:25:01.005Z,182.5
2023-11-08T06:30:00.856Z,191.0
2023-11-08T06:35:00.790Z,188.3
2023-11-08T06:40:00.810Z,190.2
2023-11-08T06:45:01.136Z,197.1
2023-11-08T06:50:00.834Z,190.9
2023-11-08T06:55:01.050Z,189.3
2023-11-08T07:00:00.782Z,182.5
2023-11-08T07:05:00.746Z,184.5
2023-11-08T07:10:00.940Z,187.4
2023-11-08T07:15:00.845Z,199.0
2023-11-08T07:20:00.825Z,192.8
2023-11-08T07:25:00.763Z,190.6
2023-11-08T07:30:00.756Z,192.0
2023-11-08T07:35:00.863Z,185.1
2023-11-08T07:40:01.093Z,177.5
2023-11-08T07:45:00.842Z,197.4
2023-11-08T07:50:00.877Z,198.0
2023-11-08T07:55:00.987Z,191.6
2023-11-08T08:00:00.812Z,197.2
2023-11-08T08:05:01.272Z,198.7
2023-11-08T08:10:00.936Z,199.2
2023-11-08T08:15:00.764Z,184.5
2023-11-08T08:20:02.476Z,195.1
2023-11-08T08:25:01.107Z,206.1
2023-11-08T08:30:00.788Z,196.3
2023-11-08T08:35:03.807Z,198.2
2023-11-08T08:40:01.080Z,192.7
2023-11-08T08:45:00.798Z,191.9
2023-11-08T08:50:01.010Z,191.8
2023-11-08T08:55:00.990Z,197.2
2023-11-08T09:00:00.766Z,205.7
2023-11-08T09:05:00.901Z,195.2
2023-11-08T09:10:00.969Z,211.5
2023-11-08T09:15:00.831Z,192.9
2023-11-08T09:20:00.935Z,197.1
2023-11-08T09:25:00.966Z,199.6
2023-11-08T09:30:00.779Z,194.0
2023-11-08T09:35:01.898Z,201.7
2023-11-08T09:40:01.053Z,207.1
2023-11-08T09:45:00.775Z,203.6
2023-11-08T09:50:01.506Z,194.6
2023-11-08T09:55:00.930Z,197.7
2023-11-08T10:00:03.937Z,199.1
2023-11-08T10:05:01.744Z,202.0
2023-11-08T10:10:01.309Z,202.9
2023-11-08T10:15:00.725Z,197.4
2023-11-08T10:20:02.902Z,209.0
2023-11-08T10:25:00.896Z,195.2
2023-11-08T10:30:00.758Z,203.4
2023-11-08T10:35:00.785Z,232.4
2023-11-08T10:40:01.100Z,204.8
2023-11-08T10:45:00.756Z,200.9
2023-11-08T10:50:00.919Z,196.7
2023-11-08T10:55:00.950Z,210.1
2023-11-08T11:00:01.010Z,198.3
2023-11-08T11:05:01.040Z,215.4
2023-11-08T11:10:01.237Z,217.9
2023-11-08T11:15:00.880Z,202.7
2023-11-08T11:20:00.955Z,204.5
2023-11-08T11:25:06.244Z,221.8
2023-11-08T11:30:00.788Z,210.0
2023-11-08T11:35:00.769Z,211.3
2023-11-08T11:40:00.976Z,226.5
2023-11-08T11:45:00.870Z,207.8
2023-11-08T11:50:00.780Z,207.9
2023-11-08T11:55:00.974Z,205.8
2023-11-08T12:00:01.026Z,226.1
2023-11-08T12:05:01.709Z,216.1
2023-11-08T12:10:00.951Z,204.5
2023-11-08T12:15:00.723Z,214.1
2023-11-08T12:20:00.758Z,216.2
2023-11-08T12:25:00.861Z,211.2
2023-11-08T12:30:00.814Z,206.6
2023-11-08T12:35:00.800Z,210.8
2023-11-08T12:40:01.064Z,219.2
2023-11-08T12:45:00.797Z,215.9
2023-11-08T12:50:00.766Z,231.1
2023-11-08T12:55:00.948Z,218.6
2023-11-08T13:00:00.931Z,226.2
2023-11-08T13:05:01.091Z,212.8
2023-11-08T13:10:00.948Z,252.4
2023-11-08T13:15:00.767Z,228.6
2023-11-08T13:20:01.071Z,232.8
2023-11-08T13:25:00.990Z,234.1
2023-11-08T13:30:00.813Z,240.9
2023-11-08T13:35:00.909Z,229.7
2023-11-08T13:40:00.932Z,246.7
2023-11-08T13:45:00.791Z,216.0
2023-11-08T13:50:00.791Z,198.8
2023-11-08T13:55:01.302Z,211.8
2023-11-08T14:00:00.795Z,203.8
2023-11-08T14:05:00.952Z,196.1
2023-11-08T14:10:01.131Z,187.1
2023-11-08T14:15:00.767Z,219.0
2023-11-08T14:20:01.050Z,207.3
2023-11-08T14:25:00.914Z,208.1
2023-11-08T14:30:01.388Z,200.1
2023-11-08T14:35:01.534Z,197.7
2023-11-08T14:40:01.077Z,201.0
2023-11-08T14:45:00.755Z,213.6
2023-11-08T14:50:00.802Z,203.4
2023-11-08T14:55:00.947Z,199.5
2023-11-08T15:00:00.761Z,196.5
2023-11-08T15:05:01.022Z,195.8
2023-11-08T15:10:02.851Z,203.0
2023-11-08T15:15:00.759Z,183.5
2023-11-08T15:20:00.808Z,199.7
2023-11-08T15:25:00.933Z,203.2
2023-11-08T15:30:00.840Z,197.9
2023-11-08T15:35:01.081Z,200.1
2023-11-08T15:40:00.987Z,184.5
2023-11-08T15:45:01.041Z,195.8
2023-11-08T15:50:00.785Z,196.9
2023-11-08T15:55:00.939Z,198.0
2023-11-08T16:00:00.828Z,184.5
2023-11-08T16:05:00.887Z,185.4
2023-11-08T16:10:00.987Z,181.5
2023-11-08T16:15:00.779Z,184.9
2023-11-08T16:20:01.641Z,180.9
2023-11-08T16:25:01.027Z,180.0
2023-11-08T16:30:00.811Z,179.9
2023-11-08T16:35:02.107Z,187.8
2023-11-08T16:40:00.881Z,182.8
2023-11-08T16:45:00.748Z,183.0
2023-11-08T16:50:00.817Z,169.7
2023-11-08T16:55:01.372Z,179.6
2023-11-08T17:00:00.796Z,187.6
2023-11-08T17:05:01.546Z,182.3
2023-11-08T17:10:01.136Z,187.6
2023-11-08T17:15:00.915Z,182.0
2023-11-08T17:20:00.738Z,173.1
2023-11-08T17:25:00.910Z,188.9
2023-11-08T17:30:00.757Z,183.4
2023-11-08T17:35:01.156Z,192.5
2023-11-08T17:40:01.122Z,185.2
2023-11-08T17:45:00.707Z,182.1
2023-11-08T17:50:01.079Z,183.9
2023-11-08T17:55:00.912Z,192.6
2023-11-08T18:00:00.825Z,181.2
2023-11-08T18:05:00.800Z,187.1
2023-11-08T18:10:01.075Z,192.6
2023-11-08T18:15:00.775Z,185.7
2023-11-08T18:20:00.874Z,195.1
2023-11-08T18:25:00.894Z,189.1
2023-11-08T18:30:00.730Z,193.2
2023-11-08T18:35:01.196Z,193.7
2023-11-08T18:40:00.974Z,192.1
2023-11-08T18:45:00.715Z,192.5
2023-11-08T18:50:00.836Z,191.0
2023-11-08T18:55:00.855Z,173.9
2023-11-08T19:00:00.780Z,180.0
2023-11-08T19:05:01.270Z,179.5
2023-11-08T19:10:00.861Z,180.1
2023-11-08T19:15:00.702Z,187.5
2023-11-08T19:20:00.767Z,183.9
2023-11-08T19:25:00.906Z,181.1
2023-11-08T19:30:00.776Z,183.7
2023-11-08T19:35:00.700Z,186.6
2023-11-08T19:40:00.991Z,177.6
2023-11-08T19:45:00.771Z,189.1
2023-11-08T19:50:01.065Z,191.1
2023-11-08T19:55:00.966Z,192.4
2023-11-08T20:00:00.735Z,187.8
2023-11-08T20:05:00.990Z,194.2
2023-11-08T20:10:00.998Z,192.3
2023-11-08T20:15:00.786Z,189.3
2023-11-08T20:20:00.800Z,183.2
2023-11-08T20:25:00.936Z,199.8
2023-11-08T20:30:00.759Z,185.9
2023-11-08T20:35:01.154Z,185.4
2023-11-08T20:40:01.060Z,186.0
2023-11-08T20:45:00.741Z,182.4
2023-11-08T20:50:01.125Z,197.3
2023-11-08T20:55:05.089Z,173.4
2023-11-08T21:00:00.806Z,161.9
2023-11-08T21:05:00.746Z,183.4
2023-11-08T21:10:00.897Z,174.9
2023-11-08T21:15:00.723Z,182.3
2023-11-08T21:20:00.726Z,172.7
2023-11-08T21:25:01.090Z,174.8
2023-11-08T21:30:00.773Z,173.5
2023-11-08T21:35:00.780Z,186.7
2023-11-08T21:40:01.117Z,173.3
2023-11-08T21:45:00.771Z,174.8
2023-11-08T21:50:01.177Z,177.9
2023-11-08T21:55:00.884Z,177.0
2023-11-08T22:00:00.766Z,172.0
2023-11-08T22:05:00.919Z,179.9
2023-11-08T22:10:01.049Z,184.8
2023-11-08T22:15:00.903Z,182.0
2023-11-08T22:20:01.296Z,183.5
2023-11-08T22:25:00.873Z,179.2
2023-11-08T22:30:00.732Z,178.9
2023-11-08T22:35:00.791Z,184.8
2023-11-08T22:40:01.024Z,181.7
2023-11-08T22:45:00.760Z,179.1
2023-11-08T22:50:00.755Z,181.1
2023-11-08T22:55:01.401Z,180.0
2023-11-08T23:00:00.837Z,180.2
2023-11-08T23:05:01.141Z,184.6
2023-11-08T23:10:00.847Z,176.3
2023-11-08T23:15:12.792Z,166.1
2023-11-08T23:20:01.161Z,176.1
2023-11-08T23:25:00.911Z,168.8
2023-11-08T23:30:00.783Z,161.0
2023-11-08T23:35:00.783Z,179.4
2023-11-08T23:40:01.850Z,167.2
2023-11-08T23:45:00.767Z,162.3
2023-11-08T23:50:00.776Z,177.0
2023-11-08T23:55:00.898Z,181.4
